Time;durP1;ratioP1;P1;durP2;ratioP2;P2;SDS_P1;SDS_P2;PMS_P1;PMS_P2;Temp;Humidity;BMP_temperature;BMP_pressure;BME280_temperature;BME280_humidity;BME280_pressure;Samples;Min_cycle;Max_cycle;Signal;HPM_P1;HPM_P2
2022/03/02 00:01:59;;;;;;;13.27;2.60;;;20.10;99.90;;;;;;5073851;28;20370;-91
2022/03/02 00:04:27;;;;;;;14.17;2.37;;;20.10;99.90;;;;;;5055663;28;20384;-91
2022/03/02 00:06:54;;;;;;;13.77;2.30;;;20.10;99.90;;;;;;5073710;28;20915;-91
2022/03/02 00:09:21;;;;;;;12.90;2.20;;;20.10;99.90;;;;;;5073926;28;20430;-91
2022/03/02 00:11:48;;;;;;;35.40;2.88;;;20.20;99.90;;;;;;5073466;28;20374;-84
2022/03/02 00:14:15;;;;;;;35.75;3.15;;;20.10;99.90;;;;;;5073486;28;20435;-92
2022/03/02 00:16:42;;;;;;;17.90;3.10;;;20.10;99.90;;;;;;5074031;28;20382;-90
2022/03/02 00:19:10;;;;;;;15.95;2.00;;;20.00;99.90;;;;;;5055120;28;20983;-88
2022/03/02 00:21:37;;;;;;;37.63;3.90;;;20.00;99.90;;;;;;5073440;28;20380;-89
2022/03/02 00:24:04;;;;;;;12.60;2.97;;;20.00;99.90;;;;;;5073735;28;20409;-88
2022/03/02 00:26:34;;;;;;;4.50;1.60;;;20.00;99.90;;;;;;5073512;28;20406;-89
2022/03/02 00:29:02;;;;;;;4.15;1.50;;;20.00;99.90;;;;;;5073191;28;20378;-89
2022/03/02 00:31:29;;;;;;;4.93;1.48;;;19.90;99.90;;;;;;5073245;28;20927;-91
2022/03/02 00:33:56;;;;;;;4.00;1.27;;;20.00;99.90;;;;;;5073111;28;20370;-89
2022/03/02 00:36:24;;;;;;;7.60;1.70;;;20.00;99.90;;;;;;5057610;28;20738;-87
2022/03/02 00:38:51;;;;;;;5.43;1.40;;;20.10;99.90;;;;;;5055330;28;20417;-90
2022/03/02 00:41:18;;;;;;;6.28;1.30;;;20.10;99.90;;;;;;5088227;28;20393;-90
2022/03/02 00:43:47;;;;;;;5.47;1.42;;;20.00;99.90;;;;;;5088426;28;20930;-90
2022/03/02 00:46:15;;;;;;;7.00;1.30;;;20.00;99.90;;;;;;5073014;28;20402;-89
2022/03/02 00:48:42;;;;;;;3.83;1.10;;;20.00;99.90;;;;;;5057090;28;20393;-92
2022/03/02 00:51:10;;;;;;;11.15;1.70;;;19.90;99.90;;;;;;5077642;28;20765;-94
2022/03/02 00:53:37;;;;;;;8.02;1.40;;;19.80;99.90;;;;;;5076966;28;20366;-89
2022/03/02 00:56:04;;;;;;;12.45;1.98;;;19.80;99.90;;;;;;5056120;28;20388;-92
2022/03/02 00:58:34;;;;;;;11.73;1.90;;;19.80;99.90;;;;;;5084549;28;20381;-87
2022/03/02 01:01:01;;;;;;;10.75;1.80;;;19.80;99.90;;;;;;5080709;28;20381;-91
2022/03/02 01:03:28;;;;;;;7.78;1.52;;;19.80;99.90;;;;;;5054312;28;20393;-89
2022/03/02 01:05:55;;;;;;;8.17;1.50;;;19.90;99.90;;;;;;5087809;28;21294;-88
2022/03/02 01:08:22;;;;;;;7.28;1.70;;;19.90;99.90;;;;;;5054529;28;20401;-89
2022/03/02 01:10:49;;;;;;;6.80;1.77;;;19.90;99.90;;;;;;5072112;28;20469;-87
2022/03/02 01:13:16;;;;;;;7.40;2.00;;;19.90;99.90;;;;;;5071554;28;20418;-88
2022/03/02 01:15:43;;;;;;;11.23;2.30;;;20.00;99.90;;;;;;5072147;28;20975;-87
2022/03/02 01:18:10;;;;;;;12.15;2.78;;;20.00;99.90;;;;;;5053732;28;20453;-87
2022/03/02 01:20:37;;;;;;;17.67;3.10;;;20.10;99.90;;;;;;5071597;28;20382;-87
2022/03/02 01:23:04;;;;;;;14.60;2.75;;;20.10;99.90;;;;;;5071385;28;20781;-87
2022/03/02 01:25:31;;;;;;;15.98;3.13;;;20.00;99.90;;;;;;5053791;28;20782;-90
2022/03/02 01:27:58;;;;;;;12.75;2.67;;;20.00;99.90;;;;;;5071661;28;20889;-90
2022/03/02 01:30:25;;;;;;;14.68;2.33;;;20.00;99.90;;;;;;5071890;28;20393;-91
2022/03/02 01:32:52;;;;;;;10.13;1.98;;;19.80;99.90;;;;;;5053140;28;20455;-88
2022/03/02 01:35:19;;;;;;;9.88;1.92;;;19.70;99.90;;;;;;5071728;28;20378;-89
2022/03/02 01:37:46;;;;;;;10.63;1.90;;;19.50;99.90;;;;;;5053628;28;20892;-87
2022/03/02 01:40:14;;;;;;;14.80;4.43;;;19.50;99.90;;;;;;5071422;28;20410;-87
2022/03/02 01:42:42;;;;;;;13.98;3.90;;;19.40;99.90;;;;;;5071365;28;21092;-87
2022/03/02 01:45:12;;;;;;;11.50;2.55;;;19.40;99.90;;;;;;5071674;28;20381;-88
2022/03/02 01:47:39;;;;;;;9.63;2.07;;;19.30;99.90;;;;;;5086636;28;20386;-87
2022/03/02 01:50:10;;;;;;;13.27;2.20;;;19.30;99.90;;;;;;5071614;28;20374;-88
2022/03/02 01:52:37;;;;;;;13.23;2.03;;;19.30;99.90;;;;;;5071366;28;20881;-87
2022/03/02 01:55:05;;;;;;;11.27;1.88;;;19.30;99.90;;;;;;5071121;28;20838;-87
2022/03/02 01:57:33;;;;;;;11.48;2.28;;;19.30;99.90;;;;;;5053152;28;20388;-88
2022/03/02 02:00:01;;;;;;;12.82;2.35;;;19.30;99.90;;;;;;5071990;28;20436;-87
2022/03/02 02:02:28;;;;;;;16.67;2.50;;;19.40;99.90;;;;;;5056001;28;20381;-87
2022/03/02 02:04:55;;;;;;;13.68;2.40;;;19.40;99.90;;;;;;5053393;28;20409;-87
2022/03/02 02:07:22;;;;;;;13.70;3.10;;;19.40;99.90;;;;;;5071247;28;21166;-87
2022/03/02 02:09:50;;;;;;;15.27;3.42;;;19.40;99.90;;;;;;5053063;28;20711;-87
2022/03/02 02:12:17;;;;;;;15.77;3.70;;;19.40;99.90;;;;;;5071091;28;20385;-87
2022/03/02 02:14:44;;;;;;;18.88;3.28;;;19.50;99.90;;;;;;5071041;28;20447;-87
2022/03/02 02:17:10;;;;;;;16.42;3.20;;;19.50;99.90;;;;;;5052723;28;20374;-87
2022/03/02 02:19:37;;;;;;;18.95;3.25;;;19.50;99.90;;;;;;5070863;28;20375;-87
2022/03/02 02:22:04;;;;;;;17.05;3.10;;;19.50;99.90;;;;;;5070912;28;20382;-87
2022/03/02 02:24:31;;;;;;;14.02;2.55;;;19.60;99.90;;;;;;5053338;28;20462;-87
2022/03/02 02:26:59;;;;;;;16.80;2.60;;;19.60;99.90;;;;;;5070504;28;20401;-87
2022/03/02 02:29:29;;;;;;;13.38;2.30;;;19.60;99.90;;;;;;5070653;28;20918;-86
2022/03/02 02:31:57;;;;;;;17.00;2.60;;;19.70;99.90;;;;;;5071395;28;20889;-87
2022/03/02 02:34:24;;;;;;;20.48;2.95;;;19.70;99.90;;;;;;5070806;28;20433;-87
2022/03/02 02:36:52;;;;;;;21.23;3.10;;;19.70;99.90;;;;;;5070593;28;20457;-87
2022/03/02 02:39:20;;;;;;;23.42;3.97;;;19.80;99.90;;;;;;5070908;28;20377;-87
2022/03/02 02:41:47;;;;;;;27.25;7.57;;;19.80;99.90;;;;;;5070778;28;20844;-87
2022/03/02 02:44:14;;;;;;;35.10;12.50;;;19.80;99.90;;;;;;5072732;28;20437;-87
2022/03/02 02:46:45;;;;;;;50.95;17.85;;;19.80;99.90;;;;;;5056570;28;20544;-86
2022/03/02 02:49:12;;;;;;;50.00;18.10;;;19.90;99.90;;;;;;5074938;28;20404;-89
2022/03/02 02:51:39;;;;;;;35.70;11.77;;;19.10;99.90;;;;;;5074752;28;20370;-87
2022/03/02 02:54:06;;;;;;;22.10;6.30;;;19.90;99.90;;;;;;5056180;28;20385;-86
2022/03/02 02:56:33;;;;;;;19.83;3.95;;;19.80;99.90;;;;;;5056643;28;20865;-86
2022/03/02 02:59:00;;;;;;;19.50;4.00;;;19.80;99.90;;;;;;5074813;28;20409;-86
2022/03/02 03:01:28;;;;;;;18.65;4.63;;;19.80;99.90;;;;;;5056400;28;20510;-86
2022/03/02 03:03:55;;;;;;;21.15;5.03;;;19.80;99.90;;;;;;5074313;28;20374;-88
2022/03/02 03:06:21;;;;;;;19.05;4.72;;;19.80;99.90;;;;;;5074354;28;20890;-87
2022/03/02 03:08:48;;;;;;;19.27;4.40;;;19.80;99.90;;;;;;5074266;28;20374;-87
2022/03/02 03:11:17;;;;;;;15.70;3.70;;;19.90;99.90;;;;;;5073852;28;20417;-87
2022/03/02 03:13:44;;;;;;;13.55;3.25;;;19.90;99.90;;;;;;5073592;28;20398;-86
2022/03/02 03:16:11;;;;;;;13.88;3.30;;;19.90;99.90;;;;;;5072622;28;20382;-86
2022/03/02 03:18:38;;;;;;;10.98;3.10;;;19.90;99.90;;;;;;5073675;28;20820;-86
2022/03/02 03:21:05;;;;;;;12.93;3.33;;;19.90;99.90;;;;;;5073732;28;20378;-85
2022/03/02 03:23:32;;;;;;;15.30;3.45;;;20.10;99.90;;;;;;5073011;28;20424;-86
2022/03/02 03:25:59;;;;;;;12.95;2.42;;;20.10;99.90;;;;;;5072340;28;20436;-88
2022/03/02 03:28:26;;;;;;;10.57;2.20;;;20.20;99.90;;;;;;5071660;28;20392;-88
2022/03/02 03:30:53;;;;;;;12.00;2.35;;;20.00;99.90;;;;;;5072642;28;20389;-88
2022/03/02 03:33:21;;;;;;;14.30;2.60;;;20.00;99.90;;;;;;5073101;28;20404;-88
2022/03/02 03:35:48;;;;;;;11.38;2.42;;;20.00;99.90;;;;;;5075082;28;20374;-89
2022/03/02 03:38:15;;;;;;;13.52;2.40;;;19.90;99.90;;;;;;5072398;28;20390;-89
2022/03/02 03:40:42;;;;;;;15.30;2.55;;;19.90;99.90;;;;;;5071332;28;20481;-89
2022/03/02 03:43:08;;;;;;;16.73;2.60;;;19.90;99.90;;;;;;5071392;28;20389;-90
2022/03/02 03:45:36;;;;;;;16.40;2.58;;;19.90;99.90;;;;;;5071926;28;20416;-89
2022/03/02 03:48:03;;;;;;;17.17;2.88;;;19.90;99.90;;;;;;5072841;28;20391;-89
2022/03/02 03:50:30;;;;;;;17.55;2.80;;;19.90;99.90;;;;;;5071191;28;20428;-90
2022/03/02 03:52:57;;;;;;;17.55;3.20;;;19.90;99.90;;;;;;5071295;28;20413;-87
2022/03/02 03:55:24;;;;;;;20.20;3.20;;;19.90;99.90;;;;;;5072251;28;20374;-87
2022/03/02 03:57:54;;;;;;;16.27;3.08;;;19.90;99.90;;;;;;5072064;28;20390;-88
2022/03/02 04:00:21;;;;;;;15.82;3.03;;;19.80;99.90;;;;;;5072399;28;20381;-87
2022/03/02 04:02:49;;;;;;;17.00;3.10;;;19.80;99.90;;;;;;5072566;28;20382;-87
2022/03/02 04:05:17;;;;;;;16.05;3.10;;;19.80;99.90;;;;;;5072259;28;20380;-86
2022/03/02 04:07:44;;;;;;;16.27;3.50;;;19.80;99.90;;;;;;5053999;28;20897;-86
2022/03/02 04:10:11;;;;;;;31.42;12.57;;;19.90;99.90;;;;;;5072084;28;20417;-89
2022/03/02 04:12:38;;;;;;;35.35;15.27;;;19.90;99.90;;;;;;5070620;28;20386;-89
2022/03/02 04:15:07;;;;;;;32.13;9.82;;;20.00;99.90;;;;;;4942640;28;3660576;-88
2022/03/02 04:17:34;;;;;;;28.87;5.30;;;19.90;99.90;;;;;;5073205;28;20414;-91
2022/03/02 04:20:02;;;;;;;26.33;4.30;;;19.90;99.90;;;;;;5072970;28;20378;-88
2022/03/02 04:22:29;;;;;;;27.10;4.40;;;19.90;99.90;;;;;;5073132;28;20382;-92
2022/03/02 04:24:59;;;;;;;30.20;4.30;;;19.90;99.90;;;;;;5070129;28;21343;-89
2022/03/02 04:27:25;;;;;;;27.65;4.80;;;19.90;99.90;;;;;;5073098;28;20468;-90
2022/03/02 04:29:52;;;;;;;31.40;4.63;;;19.80;99.90;;;;;;5072982;28;20366;-89
2022/03/02 04:32:19;;;;;;;26.85;4.13;;;19.90;99.90;;;;;;5071429;28;20917;-88
2022/03/02 04:34:46;;;;;;;34.97;4.90;;;19.90;99.90;;;;;;5073257;28;20382;-85
2022/03/02 04:37:13;;;;;;;25.08;4.10;;;19.90;99.90;;;;;;5078465;28;20393;-85
2022/03/02 04:39:40;;;;;;;22.83;3.53;;;19.90;99.90;;;;;;5104795;28;20437;-87
2022/03/02 04:42:09;;;;;;;18.15;3.25;;;19.80;99.90;;;;;;5072538;28;20389;-89
2022/03/02 04:44:36;;;;;;;20.15;3.35;;;19.70;99.90;;;;;;5072135;28;20382;-90
2022/03/02 04:47:03;;;;;;;18.98;2.92;;;19.70;99.90;;;;;;5067119;28;20467;-90
2022/03/02 04:49:31;;;;;;;17.70;2.45;;;19.70;99.90;;;;;;5074223;28;20386;-93
2022/03/02 04:51:58;;;;;;;17.73;2.95;;;19.60;99.90;;;;;;5070966;28;20801;-93
2022/03/02 04:57:12;;;;;;;16.58;2.75;;;19.60;99.90;;;;;;5075862;28;20424;-96
2022/03/02 04:59:39;;;;;;;14.05;2.70;;;19.70;99.90;;;;;;5074237;28;20384;-92
2022/03/02 05:02:06;;;;;;;18.98;3.00;;;19.60;99.90;;;;;;5079028;28;20366;-85
2022/03/02 05:04:33;;;;;;;16.90;3.90;;;19.70;99.90;;;;;;5080342;28;20374;-88
2022/03/02 05:07:00;;;;;;;19.60;5.27;;;19.60;99.90;;;;;;5054787;28;20393;-85
2022/03/02 05:09:28;;;;;;;20.20;5.60;;;19.70;99.90;;;;;;5058301;28;20386;-84
2022/03/02 05:12:08;;;;;;;25.60;5.70;;;19.80;99.90;;;;;;5056929;28;20366;-85
2022/03/02 05:14:36;;;;;;;21.73;5.10;;;19.80;99.90;;;;;;5083788;28;20441;-84
2022/03/02 05:17:04;;;;;;;21.50;4.20;;;19.90;99.90;;;;;;5075020;28;20394;-85
2022/03/02 05:19:41;;;;;;;23.83;3.97;;;20.00;99.90;;;;;;5065437;28;20405;-87
2022/03/02 05:22:08;;;;;;;21.55;4.20;;;20.00;99.90;;;;;;5051121;28;20392;-84
2022/03/02 05:24:37;;;;;;;21.42;3.70;;;20.00;99.90;;;;;;5019714;28;20397;-86
2022/03/02 05:27:07;;;;;;;22.02;3.70;;;20.00;99.90;;;;;;5033228;28;20413;-85
2022/03/02 05:29:37;;;;;;;21.10;3.95;;;20.10;99.90;;;;;;5035207;28;20380;-91
2022/03/02 05:32:05;;;;;;;27.10;4.40;;;20.80;99.90;;;;;;5038347;28;20420;-88
2022/03/02 05:34:32;;;;;;;28.13;5.30;;;20.10;99.90;;;;;;5043241;28;20472;-87
2022/03/02 05:37:04;;;;;;;33.65;5.63;;;20.10;99.90;;;;;;5039405;28;20397;-89
2022/03/02 05:39:33;;;;;;;41.47;9.43;;;20.00;99.90;;;;;;5033143;28;20429;-87
2022/03/02 05:42:02;;;;;;;46.20;13.00;;;20.10;99.90;;;;;;5014234;28;20501;-86
2022/03/02 05:44:29;;;;;;;38.47;11.40;;;20.00;99.90;;;;;;5016737;28;20471;-85
2022/03/02 05:46:56;;;;;;;27.98;5.60;;;20.10;99.90;;;;;;5011545;28;20411;-83
2022/03/02 05:49:23;;;;;;;22.08;4.43;;;20.00;99.90;;;;;;5007156;28;21365;-82
2022/03/02 05:51:50;;;;;;;28.13;4.57;;;20.00;99.90;;;;;;5030903;28;20377;-83
2022/03/02 05:54:18;;;;;;;24.27;4.77;;;20.00;99.90;;;;;;5035260;28;20376;-83
2022/03/02 05:56:45;;;;;;;31.75;4.75;;;20.00;99.90;;;;;;5050328;28;20372;-82
2022/03/02 05:59:14;;;;;;;21.77;4.00;;;20.00;99.90;;;;;;5051655;28;20382;-85
2022/03/02 06:01:44;;;;;;;24.85;4.35;;;20.00;99.90;;;;;;5054387;28;20380;-83
2022/03/02 06:04:14;;;;;;;23.08;3.92;;;20.00;99.90;;;;;;5058750;28;20445;-85
2022/03/02 06:06:42;;;;;;;23.35;3.85;;;19.90;99.90;;;;;;5050351;28;20477;-83
2022/03/02 06:09:11;;;;;;;21.70;4.18;;;19.90;99.90;;;;;;5061273;28;20816;-84
2022/03/02 06:11:39;;;;;;;26.30;4.50;;;20.00;99.90;;;;;;5045770;28;20836;-86
2022/03/02 06:14:07;;;;;;;23.17;4.20;;;20.10;99.90;;;;;;5049383;28;20400;-84
2022/03/02 06:16:35;;;;;;;22.23;4.20;;;20.10;99.90;;;;;;5061643;28;20409;-85
2022/03/02 06:19:02;;;;;;;19.75;3.63;;;20.20;99.90;;;;;;5065451;28;20389;-84
2022/03/02 06:21:30;;;;;;;20.40;3.58;;;20.20;99.90;;;;;;5069849;28;20386;-83
2022/03/02 06:23:58;;;;;;;19.75;3.75;;;20.20;99.90;;;;;;5070118;28;20460;-85
2022/03/02 06:26:27;;;;;;;21.15;3.70;;;20.30;99.90;;;;;;5071404;28;20397;-82
2022/03/02 06:28:54;;;;;;;24.92;3.53;;;20.30;99.90;;;;;;5072555;28;20382;-85
2022/03/02 06:31:21;;;;;;;22.58;3.65;;;20.40;99.90;;;;;;5073845;28;20382;-85
2022/03/02 06:33:48;;;;;;;21.83;3.78;;;20.30;99.90;;;;;;5072076;28;20389;-82
2022/03/02 06:36:18;;;;;;;19.67;3.70;;;20.20;99.90;;;;;;5054964;28;20382;-84
2022/03/02 06:38:45;;;;;;;19.63;3.70;;;20.10;99.90;;;;;;5053344;28;20382;-81
2022/03/02 06:41:25;;;;;;;20.83;3.95;;;20.00;99.90;;;;;;5070837;28;20384;-83
2022/03/02 06:44:22;;;;;;;20.48;3.90;;;20.00;99.90;;;;;;5071535;28;20378;-84
2022/03/02 06:47:10;;;;;;;23.40;3.90;;;20.00;99.90;;;;;;5070372;28;20999;-85
2022/03/02 06:49:44;;;;;;;25.20;4.07;;;19.90;99.90;;;;;;5071830;28;20381;-83
2022/03/02 06:52:16;;;;;;;20.57;3.57;;;19.90;99.90;;;;;;5070269;28;20382;-86
2022/03/02 06:54:47;;;;;;;22.83;3.95;;;19.90;99.90;;;;;;5070304;28;20382;-85
2022/03/02 06:57:16;;;;;;;23.03;3.83;;;19.80;99.90;;;;;;5070160;28;20432;-82
2022/03/02 06:59:51;;;;;;;20.55;3.92;;;19.80;99.90;;;;;;5070052;28;20560;-86
2022/03/02 07:02:34;;;;;;;24.33;4.38;;;19.80;99.90;;;;;;5070769;28;20362;-86
2022/03/02 07:05:05;;;;;;;27.27;4.90;;;19.80;99.90;;;;;;5069743;28;20386;-87
2022/03/02 07:07:32;;;;;;;32.05;6.45;;;19.80;99.90;;;;;;5070011;28;20408;-84
2022/03/02 07:10:00;;;;;;;25.20;6.25;;;19.80;99.90;;;;;;5072126;28;20472;-87
2022/03/02 07:12:28;;;;;;;23.58;5.60;;;19.70;99.90;;;;;;5070735;28;20420;-87
2022/03/02 07:14:55;;;;;;;23.48;6.03;;;19.70;99.90;;;;;;5051025;28;20895;-90
2022/03/02 07:17:23;;;;;;;24.33;6.43;;;19.70;99.90;;;;;;5050776;28;20876;-87
2022/03/02 07:19:50;;;;;;;23.48;6.55;;;19.70;99.90;;;;;;5049794;28;20376;-89
2022/03/02 07:22:21;;;;;;;23.88;5.25;;;19.60;99.90;;;;;;5051896;28;20475;-91
2022/03/02 07:24:58;;;;;;;25.60;6.13;;;19.60;99.90;;;;;;5058959;28;20372;-84
2022/03/02 07:27:29;;;;;;;22.25;4.85;;;19.60;99.90;;;;;;5064826;28;20398;-84
2022/03/02 07:29:57;;;;;;;23.17;5.20;;;19.60;99.90;;;;;;5066426;28;20463;-84
2022/03/02 07:32:29;;;;;;;18.08;4.78;;;19.70;99.90;;;;;;5064860;28;20874;-90
2022/03/02 07:34:58;;;;;;;20.35;4.63;;;19.80;99.90;;;;;;5057825;28;20383;-84
2022/03/02 07:37:27;;;;;;;19.15;4.13;;;19.70;99.90;;;;;;5052733;28;20475;-86
2022/03/02 07:39:55;;;;;;;13.83;3.80;;;19.70;99.90;;;;;;5053312;28;20387;-89
2022/03/02 07:42:22;;;;;;;17.48;4.72;;;19.70;99.90;;;;;;5053907;28;20388;-86
2022/03/02 07:44:50;;;;;;;7.53;2.97;;;19.70;99.90;;;;;;5056085;28;20376;-93
2022/03/02 07:47:18;;;;;;;12.98;3.75;;;19.70;99.90;;;;;;5056657;28;20403;-93
2022/03/02 07:49:47;;;;;;;12.55;3.90;;;19.70;99.90;;;;;;5079581;28;20400;-83
2022/03/02 07:52:15;;;;;;;8.98;3.72;;;19.70;99.90;;;;;;5049940;28;20485;-90
2022/03/02 07:54:43;;;;;;;8.63;3.63;;;19.60;99.90;;;;;;5052816;28;20854;-89
2022/03/02 07:57:12;;;;;;;10.27;5.40;;;19.60;99.90;;;;;;5053277;28;20388;-88
2022/03/02 07:59:44;;;;;;;11.18;4.43;;;19.60;99.90;;;;;;5055689;28;20800;-90
2022/03/02 08:02:13;;;;;;;9.68;3.90;;;19.70;99.90;;;;;;5053808;28;20482;-89
2022/03/02 08:04:42;;;;;;;9.43;3.90;;;19.70;99.90;;;;;;5052421;28;20392;-88
2022/03/02 08:07:12;;;;;;;9.88;4.57;;;19.70;99.90;;;;;;5057474;28;20407;-95
2022/03/02 08:09:42;;;;;;;9.25;3.90;;;19.60;99.90;;;;;;5051089;28;20388;-94
2022/03/02 08:12:10;;;;;;;11.98;4.63;;;19.70;99.90;;;;;;5055429;28;20396;-91
2022/03/02 08:14:37;;;;;;;20.48;5.70;;;19.70;99.90;;;;;;5076980;28;20392;-89
2022/03/02 08:17:05;;;;;;;26.38;5.80;;;19.70;99.90;;;;;;5082775;28;20382;-90
2022/03/02 08:19:32;;;;;;;15.10;3.78;;;19.70;99.90;;;;;;5084604;28;20388;-86
2022/03/02 08:22:04;;;;;;;16.40;3.90;;;19.70;99.90;;;;;;5091299;28;20442;-85
2022/03/02 08:24:32;;;;;;;13.52;3.75;;;19.60;99.90;;;;;;5080532;28;20894;-89
2022/03/02 08:27:03;;;;;;;15.05;3.35;;;19.70;99.90;;;;;;5076280;28;20409;-89
2022/03/02 08:29:32;;;;;;;14.20;3.28;;;19.60;99.90;;;;;;5070993;28;20761;-90
2022/03/02 08:32:01;;;;;;;13.10;3.00;;;19.60;99.90;;;;;;5073240;28;20741;-91
2022/03/02 08:34:31;;;;;;;15.93;3.10;;;19.60;99.90;;;;;;5074521;28;20465;-94
2022/03/02 08:36:59;;;;;;;14.90;3.00;;;19.60;99.90;;;;;;5075841;28;20390;-91
2022/03/02 08:39:27;;;;;;;14.13;2.83;;;19.60;99.90;;;;;;5085170;28;20381;-95
2022/03/02 08:41:55;;;;;;;13.63;3.00;;;19.50;99.90;;;;;;5093894;28;20370;-90
2022/03/02 08:44:25;;;;;;;13.57;2.88;;;19.50;99.90;;;;;;5097506;28;20528;-84
2022/03/02 08:46:54;;;;;;;13.20;2.85;;;19.50;99.90;;;;;;5108287;28;20433;-88
2022/03/02 08:49:22;;;;;;;15.20;2.97;;;19.50;99.90;;;;;;5100051;28;21068;-91
2022/03/02 08:51:52;;;;;;;14.07;3.10;;;19.50;99.90;;;;;;5094183;28;20452;-87
2022/03/02 08:54:20;;;;;;;15.27;3.10;;;19.60;99.90;;;;;;5093984;28;20426;-86
2022/03/02 08:56:48;;;;;;;13.88;3.00;;;19.60;99.90;;;;;;5100455;28;20468;-85
2022/03/02 08:59:18;;;;;;;16.85;3.10;;;19.60;99.90;;;;;;5097541;28;20424;-85
2022/03/02 09:01:50;;;;;;;18.40;3.53;;;19.60;99.90;;;;;;5100448;28;20809;-93
2022/03/02 09:04:24;;;;;;;20.65;3.63;;;19.60;99.90;;;;;;5092896;28;20374;-91
2022/03/02 09:06:51;;;;;;;19.73;3.47;;;19.60;99.90;;;;;;5078181;28;20453;-86
2022/03/02 09:09:19;;;;;;;14.48;2.97;;;19.60;99.90;;;;;;5093172;28;20400;-87
2022/03/02 09:11:46;;;;;;;7.53;1.80;;;19.50;99.90;;;;;;5094139;28;20383;-89
2022/03/02 09:14:13;;;;;;;11.35;1.90;;;19.50;99.90;;;;;;5091927;28;20395;-91
2022/03/02 09:16:40;;;;;;;11.48;1.90;;;19.40;99.90;;;;;;5093239;28;20833;-86
2022/03/02 09:19:08;;;;;;;13.60;2.10;;;19.30;99.90;;;;;;5073383;28;20403;-89
2022/03/02 09:21:36;;;;;;;10.17;2.03;;;19.30;99.90;;;;;;5092763;28;20376;-90
2022/03/02 09:24:05;;;;;;;10.27;2.00;;;19.30;99.90;;;;;;5073955;28;20373;-88
2022/03/02 09:26:33;;;;;;;8.57;2.03;;;19.30;99.90;;;;;;5076872;28;20411;-89
2022/03/02 09:29:04;;;;;;;10.30;2.05;;;19.30;99.90;;;;;;5099515;28;20364;-93
2022/03/02 09:31:37;;;;;;;10.70;2.30;;;19.30;99.90;;;;;;5096366;28;20393;-88
2022/03/02 09:34:08;;;;;;;10.57;2.40;;;19.30;99.90;;;;;;5094718;28;20391;-87
2022/03/02 09:36:37;;;;;;;10.93;2.50;;;19.30;99.90;;;;;;5092246;28;20378;-87
2022/03/02 09:39:08;;;;;;;13.40;2.78;;;19.30;99.90;;;;;;5083314;28;20436;-93
2022/03/02 09:42:00;;;;;;;13.18;2.70;;;19.30;99.90;;;;;;5093027;28;20386;-93
2022/03/02 09:44:34;;;;;;;10.82;2.50;;;19.30;99.90;;;;;;5084820;28;20394;-87
2022/03/02 09:47:04;;;;;;;13.57;2.45;;;19.30;99.90;;;;;;5084893;28;20439;-91
2022/03/02 09:49:34;;;;;;;15.48;2.92;;;19.30;99.90;;;;;;5088996;28;20408;-91
2022/03/02 09:52:10;;;;;;;12.65;2.58;;;19.30;99.90;;;;;;5093878;28;20728;-94
2022/03/02 09:54:39;;;;;;;13.33;2.90;;;19.30;99.90;;;;;;5068007;28;20374;-95
2022/03/02 09:57:08;;;;;;;14.10;2.90;;;19.30;99.90;;;;;;5077587;28;20726;-92
2022/03/02 09:59:39;;;;;;;15.60;2.83;;;19.20;99.90;;;;;;5078747;28;20469;-95
2022/03/02 10:02:10;;;;;;;17.70;3.10;;;19.20;99.90;;;;;;5073337;28;20414;-93
2022/03/02 10:04:45;;;;;;;15.93;2.85;;;19.30;99.90;;;;;;5078409;28;20948;-94
2022/03/02 10:07:26;;;;;;;16.35;2.97;;;19.20;99.90;;;;;;5078156;28;20397;-85
2022/03/02 10:10:10;;;;;;;21.50;3.42;;;19.20;99.90;;;;;;5076085;28;20366;-88
2022/03/02 10:12:38;;;;;;;18.42;3.22;;;19.20;99.90;;;;;;5062782;28;20423;-88
2022/03/02 10:15:10;;;;;;;20.73;3.40;;;19.20;99.90;;;;;;5070535;28;20398;-88
2022/03/02 10:17:43;;;;;;;19.00;3.53;;;19.30;99.90;;;;;;5053545;28;20368;-88
2022/03/02 10:20:14;;;;;;;17.70;3.28;;;19.30;99.90;;;;;;5046982;28;20384;-88
2022/03/02 10:22:41;;;;;;;21.75;3.40;;;19.30;99.90;;;;;;5038072;28;20475;-87
2022/03/02 10:25:10;;;;;;;24.92;3.90;;;19.30;99.90;;;;;;5051292;28;20404;-87
2022/03/02 10:27:50;;;;;;;27.80;3.87;;;19.30;99.90;;;;;;5049755;28;20504;-89
2022/03/02 10:30:18;;;;;;;23.02;4.20;;;19.30;99.90;;;;;;5052279;28;20371;-89
2022/03/02 10:32:48;;;;;;;25.87;4.20;;;19.30;99.90;;;;;;5053197;28;20442;-91
2022/03/02 10:35:21;;;;;;;21.80;3.97;;;19.30;99.90;;;;;;5033334;28;20475;-88
2022/03/02 10:37:48;;;;;;;23.50;4.43;;;19.30;99.90;;;;;;5030534;28;20384;-86
2022/03/02 10:40:24;;;;;;;26.67;4.20;;;19.30;99.90;;;;;;5051861;28;20371;-92
2022/03/02 10:43:04;;;;;;;25.17;4.17;;;19.30;99.90;;;;;;5060626;28;20371;-90
2022/03/02 10:45:51;;;;;;;26.20;4.28;;;19.30;99.90;;;;;;5057679;28;20386;-90
2022/03/02 10:48:41;;;;;;;30.02;5.00;;;19.40;99.90;;;;;;5036463;28;20760;-87
2022/03/02 10:51:11;;;;;;;27.50;5.20;;;19.40;99.90;;;;;;5063295;28;20380;-91
2022/03/02 10:53:40;;;;;;;23.75;4.30;;;19.50;99.90;;;;;;5036242;28;20380;-88
2022/03/02 10:56:08;;;;;;;23.50;3.93;;;19.40;99.90;;;;;;5039023;28;20411;-92
2022/03/02 10:58:38;;;;;;;27.70;4.38;;;19.40;99.90;;;;;;5056216;28;20400;-96
2022/03/02 11:01:06;;;;;;;27.45;4.18;;;19.40;99.90;;;;;;5054075;28;20379;-95
2022/03/02 11:03:37;;;;;;;28.92;4.68;;;19.40;99.90;;;;;;5053885;28;20936;-91
2022/03/02 11:06:06;;;;;;;26.27;4.70;;;19.40;99.90;;;;;;5055719;28;20387;-87
2022/03/02 11:08:36;;;;;;;19.80;4.40;;;19.40;99.90;;;;;;5056058;28;20376;-93
2022/03/02 11:11:08;;;;;;;29.48;4.90;;;19.50;99.90;;;;;;5043689;28;20467;-90
2022/03/02 11:13:35;;;;;;;30.33;5.57;;;19.50;99.90;;;;;;5062525;28;20415;-89
2022/03/02 11:16:04;;;;;;;20.37;4.13;;;19.50;99.90;;;;;;5075632;28;20540;-94
2022/03/02 11:18:55;;;;;;;42.43;6.07;;;19.50;99.90;;;;;;5077317;28;20507;-94
2022/03/02 11:21:35;;;;;;;27.30;5.00;;;19.50;99.90;;;;;;5066451;28;20383;-91
2022/03/02 11:24:04;;;;;;;22.35;4.20;;;19.50;99.90;;;;;;5055655;28;20431;-92
2022/03/02 11:26:37;;;;;;;20.23;4.53;;;19.50;99.90;;;;;;5055193;28;20403;-88
2022/03/02 11:29:16;;;;;;;18.85;4.00;;;19.50;99.90;;;;;;5058674;28;20372;-85
2022/03/02 11:31:50;;;;;;;16.65;3.30;;;19.50;99.90;;;;;;5065923;28;20391;-92
2022/03/02 11:34:31;;;;;;;17.93;3.80;;;19.50;99.90;;;;;;5042948;28;20383;-96
2022/03/02 11:37:18;;;;;;;15.55;3.55;;;19.50;99.90;;;;;;5066976;28;20458;-89
2022/03/02 11:39:45;;;;;;;16.02;3.17;;;19.50;99.90;;;;;;5064747;28;20378;-94
2022/03/02 11:42:13;;;;;;;19.25;3.70;;;19.50;99.90;;;;;;5068129;28;20376;-93
2022/03/02 11:45:12;;;;;;;13.35;3.35;;;19.50;99.90;;;;;;5044052;28;20439;-87
2022/03/02 11:47:55;;;;;;;18.80;3.75;;;19.50;99.90;;;;;;4977623;28;20419;-92
2022/03/02 11:50:22;;;;;;;13.50;3.50;;;19.50;99.90;;;;;;5010633;28;20843;-89
2022/03/02 11:52:49;;;;;;;16.88;3.80;;;19.50;99.90;;;;;;5007983;28;20400;-88
2022/03/02 11:55:20;;;;;;;18.50;3.75;;;19.50;99.90;;;;;;5006760;28;20396;-89
2022/03/02 11:57:53;;;;;;;17.48;4.00;;;19.50;99.90;;;;;;4980666;28;20405;-91
2022/03/02 12:00:25;;;;;;;18.40;4.57;;;19.50;99.90;;;;;;4992708;28;20385;-93
2022/03/02 12:03:02;;;;;;;20.80;5.15;;;19.50;99.90;;;;;;4998691;28;20447;-93
2022/03/02 12:05:31;;;;;;;13.10;3.70;;;19.50;99.90;;;;;;4993208;28;20940;-92
2022/03/02 12:08:10;;;;;;;13.82;3.90;;;19.50;99.90;;;;;;4993705;28;20396;-91
2022/03/02 12:10:42;;;;;;;16.75;4.43;;;19.50;99.90;;;;;;4997396;28;20387;-86
2022/03/02 12:13:16;;;;;;;16.77;4.60;;;19.50;99.90;;;;;;5002447;28;20553;-92
2022/03/02 12:15:55;;;;;;;16.70;4.90;;;19.50;99.90;;;;;;4991476;28;20393;-88
2022/03/02 12:18:23;;;;;;;18.33;5.25;;;19.50;99.90;;;;;;4992251;28;20389;-84
2022/03/02 12:20:55;;;;;;;27.23;6.18;;;19.60;99.90;;;;;;4993902;28;20480;-87
2022/03/02 12:23:30;;;;;;;36.47;7.25;;;19.60;99.90;;;;;;4995843;28;20397;-85
2022/03/02 12:25:59;;;;;;;33.35;7.20;;;19.60;99.90;;;;;;4996459;28;20517;-88
2022/03/02 12:28:26;;;;;;;32.42;7.15;;;19.60;99.90;;;;;;4998434;28;20497;-83
2022/03/02 12:30:59;;;;;;;17.05;4.85;;;19.60;99.90;;;;;;5005027;28;20392;-85
2022/03/02 12:33:26;;;;;;;30.90;6.78;;;19.60;99.90;;;;;;5000375;28;20376;-91
2022/03/02 12:35:53;;;;;;;26.77;6.43;;;19.60;99.90;;;;;;4991333;28;20389;-86
2022/03/02 12:38:21;;;;;;;26.52;6.60;;;19.60;99.90;;;;;;4992091;28;20388;-91
2022/03/02 12:40:49;;;;;;;28.58;7.13;;;19.60;99.90;;;;;;5013979;28;20399;-85
2022/03/02 12:43:18;;;;;;;24.50;6.40;;;19.60;99.90;;;;;;5056543;28;20455;-87
2022/03/02 12:45:50;;;;;;;29.48;7.10;;;19.60;99.90;;;;;;5073086;28;20414;-86
2022/03/02 12:48:19;;;;;;;35.37;6.90;;;19.60;99.90;;;;;;5072944;28;20382;-90
2022/03/02 12:50:47;;;;;;;26.50;6.60;;;19.70;99.90;;;;;;5071974;28;20500;-90
2022/03/02 12:53:15;;;;;;;12.88;4.15;;;19.60;99.90;;;;;;5072484;28;20374;-85